Time;durP1;ratioP1;P1;durP2;ratioP2;P2;SDS_P1;SDS_P2;PMS_P1;PMS_P2;Temp;Humidity;BMP_temperature;BMP_pressure;BME280_temperature;BME280_humidity;BME280_pressure;Samples;Min_cycle;Max_cycle;Signal;HPM_P1;HPM_P2
2021/01/23 00:00:32;;;;;;;10.03;9.33;;;2.60;99.90;;;;;;6125458;23;20440;-78
2021/01/23 00:02:58;;;;;;;12.63;11.70;;;2.50;99.90;;;;;;6126025;23;20471;-77
2021/01/23 00:05:25;;;;;;;9.83;9.23;;;2.60;99.90;;;;;;6125499;23;20420;-78
2021/01/23 00:07:51;;;;;;;10.73;9.93;;;2.50;99.90;;;;;;6125690;23;20426;-78
2021/01/23 00:10:17;;;;;;;12.23;11.33;;;2.50;99.90;;;;;;6125449;23;20424;-77
2021/01/23 00:12:44;;;;;;;10.67;9.97;;;2.50;99.90;;;;;;6125665;23;20460;-78
2021/01/23 00:15:11;;;;;;;12.73;11.83;;;2.50;99.90;;;;;;6125547;23;20794;-78
2021/01/23 00:17:38;;;;;;;14.03;12.73;;;2.50;99.90;;;;;;6127280;23;20935;-78
2021/01/23 00:20:05;;;;;;;11.10;10.33;;;2.50;99.90;;;;;;6125549;23;20412;-78
2021/01/23 00:22:31;;;;;;;10.73;10.03;;;2.40;99.90;;;;;;6127763;23;20414;-78
2021/01/23 00:24:57;;;;;;;10.07;9.47;;;2.50;99.90;;;;;;6125737;23;20410;-78
2021/01/23 00:27:24;;;;;;;10.20;9.60;;;2.40;99.90;;;;;;6126030;23;20426;-78
2021/01/23 00:29:51;;;;;;;9.60;9.10;;;2.40;99.90;;;;;;6125558;23;20417;-77
2021/01/23 00:32:17;;;;;;;9.40;8.90;;;2.50;99.90;;;;;;6125991;23;20444;-78
2021/01/23 00:34:43;;;;;;;9.27;8.77;;;2.50;99.90;;;;;;6127413;23;20386;-78
2021/01/23 00:37:10;;;;;;;9.60;9.00;;;2.40;99.90;;;;;;6127253;23;20433;-78
2021/01/23 00:39:36;;;;;;;9.73;9.20;;;2.40;99.90;;;;;;6127218;23;20389;-77
2021/01/23 00:42:03;;;;;;;10.10;9.50;;;2.40;99.90;;;;;;6126371;23;20451;-77
2021/01/23 00:44:29;;;;;;;10.00;9.40;;;2.40;99.90;;;;;;6127606;23;20415;-77
2021/01/23 00:46:56;;;;;;;9.77;9.27;;;2.40;99.90;;;;;;6128011;23;20423;-78
2021/01/23 00:49:23;;;;;;;10.60;10.00;;;2.40;99.90;;;;;;6127408;23;20501;-77
2021/01/23 00:51:50;;;;;;;10.30;9.70;;;2.40;99.90;;;;;;6127366;23;20458;-77
2021/01/23 00:54:16;;;;;;;9.40;8.90;;;2.40;99.90;;;;;;6127294;23;20908;-78
2021/01/23 00:56:43;;;;;;;9.40;8.90;;;2.40;99.90;;;;;;6127064;23;20423;-78
2021/01/23 00:59:09;;;;;;;9.47;8.97;;;2.40;99.90;;;;;;6126868;23;20452;-77
2021/01/23 01:01:35;;;;;;;9.13;8.63;;;2.40;99.90;;;;;;6127487;23;20439;-77
2021/01/23 01:04:06;;;;;;;9.60;9.10;;;2.30;99.90;;;;;;6127398;23;20764;-78
2021/01/23 01:06:32;;;;;;;9.37;8.87;;;2.40;99.90;;;;;;6127456;23;20440;-77
2021/01/23 01:08:59;;;;;;;9.53;9.03;;;2.40;99.90;;;;;;6127280;23;20416;-78
2021/01/23 01:11:25;;;;;;;9.50;9.00;;;2.40;99.90;;;;;;6127053;23;20438;-77
2021/01/23 01:13:51;;;;;;;9.80;9.30;;;2.40;99.90;;;;;;6128993;23;20394;-77
2021/01/23 01:16:17;;;;;;;9.70;9.20;;;2.40;99.90;;;;;;6129823;23;20416;-78
2021/01/23 01:18:44;;;;;;;9.53;9.03;;;2.40;99.90;;;;;;6127881;23;20439;-78
2021/01/23 01:21:11;;;;;;;9.40;8.90;;;2.40;99.90;;;;;;6127456;23;20429;-77
2021/01/23 01:23:38;;;;;;;9.30;8.80;;;2.30;99.90;;;;;;6129496;23;20397;-77
2021/01/23 01:26:04;;;;;;;9.40;8.90;;;2.40;99.90;;;;;;6130250;23;20395;-77
2021/01/23 01:28:31;;;;;;;9.80;9.13;;;2.40;99.90;;;;;;6128148;23;20521;-77
2021/01/23 01:30:57;;;;;;;9.60;9.10;;;2.30;99.90;;;;;;6129685;23;20440;-77
2021/01/23 01:33:23;;;;;;;9.40;8.90;;;2.30;99.90;;;;;;6129535;23;20407;-77
2021/01/23 01:35:49;;;;;;;9.30;8.80;;;2.30;99.90;;;;;;6128227;23;20970;-77
2021/01/23 01:38:17;;;;;;;9.40;8.90;;;2.30;99.90;;;;;;6127720;23;20433;-77
2021/01/23 01:40:43;;;;;;;9.50;9.00;;;2.30;99.90;;;;;;6127085;23;20426;-77
2021/01/23 01:43:09;;;;;;;9.60;9.10;;;2.30;99.90;;;;;;6127579;23;20534;-77
2021/01/23 01:45:35;;;;;;;9.50;9.00;;;2.30;99.90;;;;;;6128966;23;20389;-78
2021/01/23 01:48:02;;;;;;;9.60;9.10;;;2.30;99.90;;;;;;6127577;23;20444;-77
2021/01/23 01:50:28;;;;;;;9.70;9.20;;;2.30;99.90;;;;;;6127103;23;20423;-77
2021/01/23 01:52:55;;;;;;;9.70;9.20;;;2.30;99.90;;;;;;6127719;23;20454;-77
2021/01/23 01:55:30;;;;;;;9.70;9.20;;;2.30;99.90;;;;;;6127070;23;20779;-77
2021/01/23 01:57:57;;;;;;;9.40;8.90;;;2.30;99.90;;;;;;6127346;23;20917;-77
2021/01/23 02:00:23;;;;;;;9.93;9.43;;;2.30;99.90;;;;;;6127155;23;20434;-77
2021/01/23 02:03:25;;;;;;;9.80;9.30;;;2.30;99.90;;;;;;6128379;23;20466;-78
2021/01/23 02:06:00;;;;;;;9.80;9.30;;;2.30;99.90;;;;;;6122886;23;20414;-77
2021/01/23 02:08:33;;;;;;;9.80;9.30;;;2.30;99.90;;;;;;6124049;23;20850;-77
2021/01/23 02:11:07;;;;;;;10.20;9.60;;;2.40;99.90;;;;;;6126329;23;20406;-77
2021/01/23 02:13:40;;;;;;;10.10;9.50;;;2.30;99.90;;;;;;6125127;23;20408;-77
2021/01/23 02:16:12;;;;;;;10.13;9.53;;;2.30;99.90;;;;;;6125166;23;20430;-78
2021/01/23 02:18:41;;;;;;;10.00;9.50;;;2.30;99.90;;;;;;6124970;23;20436;-78
2021/01/23 02:21:41;;;;;;;10.27;9.67;;;2.30;99.90;;;;;;6126378;23;20438;-77
2021/01/23 02:24:07;;;;;;;10.03;9.53;;;2.30;99.90;;;;;;6126422;23;20387;-77
2021/01/23 02:26:47;;;;;;;9.80;9.30;;;2.30;99.90;;;;;;6124504;23;20421;-77
2021/01/23 02:29:21;;;;;;;9.80;9.30;;;2.30;99.90;;;;;;6124628;23;20401;-76
2021/01/23 02:31:52;;;;;;;9.97;9.43;;;2.30;99.90;;;;;;6127664;23;20425;-77
2021/01/23 02:34:22;;;;;;;9.90;9.40;;;2.30;99.90;;;;;;6126438;23;20781;-77
2021/01/23 02:36:50;;;;;;;9.90;9.40;;;2.30;99.90;;;;;;6126504;23;20414;-77
2021/01/23 02:39:18;;;;;;;9.90;9.30;;;2.30;99.90;;;;;;6125233;23;20982;-77
2021/01/23 02:41:46;;;;;;;9.90;9.40;;;2.30;99.90;;;;;;6128512;23;20421;-77
2021/01/23 02:44:13;;;;;;;10.20;9.60;;;2.30;99.90;;;;;;6125288;23;20982;-77
2021/01/23 02:46:39;;;;;;;10.53;9.93;;;2.30;99.90;;;;;;6125348;23;20468;-77
2021/01/23 02:49:07;;;;;;;10.07;9.57;;;2.30;99.90;;;;;;6126196;23;20452;-77
2021/01/23 02:51:36;;;;;;;10.13;9.60;;;2.20;99.90;;;;;;6125980;23;20413;-77
2021/01/23 02:54:08;;;;;;;10.27;9.73;;;2.30;99.90;;;;;;6125136;23;20426;-77
2021/01/23 02:56:35;;;;;;;9.80;9.30;;;2.30;99.90;;;;;;6125374;23;20420;-77
2021/01/23 02:59:03;;;;;;;10.00;9.50;;;2.30;99.90;;;;;;6126344;23;20468;-77
2021/01/23 03:01:33;;;;;;;10.00;9.50;;;2.20;99.90;;;;;;6127021;23;20466;-77
2021/01/23 03:04:00;;;;;;;10.47;9.83;;;2.20;99.90;;;;;;6126801;23;20445;-76
2021/01/23 03:06:28;;;;;;;10.37;9.67;;;2.20;99.90;;;;;;6125240;23;20420;-78
2021/01/23 03:08:54;;;;;;;10.07;9.53;;;2.30;99.90;;;;;;6126450;23;20517;-78
2021/01/23 03:11:20;;;;;;;10.20;9.70;;;2.30;99.90;;;;;;6124925;23;20430;-77
2021/01/23 03:13:47;;;;;;;10.30;9.80;;;2.20;99.90;;;;;;6127163;23;20400;-78
2021/01/23 03:16:13;;;;;;;10.10;9.53;;;2.20;99.90;;;;;;6127160;23;20385;-78
2021/01/23 03:18:39;;;;;;;10.40;9.90;;;2.20;99.90;;;;;;6126812;23;20427;-77
2021/01/23 03:21:06;;;;;;;10.60;10.00;;;2.20;99.90;;;;;;6125573;23;20444;-77
2021/01/23 03:23:33;;;;;;;10.03;9.53;;;2.20;99.90;;;;;;6126974;23;20401;-78
2021/01/23 03:25:59;;;;;;;10.10;9.60;;;2.20;99.90;;;;;;6125419;23;20428;-78
2021/01/23 03:28:25;;;;;;;10.00;9.50;;;2.30;99.90;;;;;;6125355;23;20413;-78
2021/01/23 03:30:51;;;;;;;11.07;10.47;;;2.30;99.90;;;;;;6125255;23;20428;-78
2021/01/23 03:33:18;;;;;;;10.70;10.10;;;2.30;99.90;;;;;;6125249;23;20812;-77
2021/01/23 03:35:44;;;;;;;10.30;9.70;;;2.30;99.90;;;;;;6125579;23;20414;-78
2021/01/23 03:38:10;;;;;;;10.17;9.67;;;2.30;99.90;;;;;;6125352;23;20940;-78
2021/01/23 03:40:37;;;;;;;10.40;9.80;;;2.30;99.90;;;;;;6125786;23;20474;-77
2021/01/23 03:43:04;;;;;;;10.80;10.20;;;2.30;99.90;;;;;;6124900;23;20447;-78
2021/01/23 03:45:30;;;;;;;10.50;9.90;;;2.30;99.90;;;;;;6125327;23;20411;-78
2021/01/23 03:47:56;;;;;;;10.60;10.00;;;2.30;99.90;;;;;;6125366;23;20519;-77
2021/01/23 03:50:22;;;;;;;10.60;10.00;;;2.30;99.90;;;;;;6126821;23;20396;-78
2021/01/23 03:52:49;;;;;;;10.70;10.10;;;2.30;99.90;;;;;;6127319;23;20421;-78
2021/01/23 03:55:15;;;;;;;10.80;10.20;;;2.30;99.90;;;;;;6126218;23;20426;-78
2021/01/23 03:57:42;;;;;;;10.80;10.20;;;2.30;99.90;;;;;;6117537;23;20505;-78
2021/01/23 04:00:09;;;;;;;10.90;10.30;;;2.30;99.90;;;;;;6124299;23;20892;-78
2021/01/23 04:02:36;;;;;;;10.70;10.10;;;2.30;99.90;;;;;;6123157;23;20444;-77
2021/01/23 04:05:03;;;;;;;10.70;10.10;;;2.30;99.90;;;;;;6122228;23;20413;-78
2021/01/23 04:07:30;;;;;;;10.63;10.03;;;2.30;99.90;;;;;;6116788;23;20429;-78
2021/01/23 04:09:56;;;;;;;10.60;10.03;;;2.20;99.90;;;;;;6124240;23;20450;-77
2021/01/23 04:12:22;;;;;;;10.93;10.33;;;2.30;99.90;;;;;;6125728;23;20460;-77
2021/01/23 04:14:49;;;;;;;10.83;10.23;;;2.30;99.90;;;;;;6126956;23;20409;-77
2021/01/23 04:17:16;;;;;;;11.07;10.47;;;2.20;99.90;;;;;;6124437;23;20419;-76
2021/01/23 04:19:42;;;;;;;10.90;10.30;;;2.30;99.90;;;;;;6124259;23;20387;-76
2021/01/23 04:22:09;;;;;;;11.00;10.30;;;2.30;99.90;;;;;;6124764;23;20898;-77
2021/01/23 04:24:35;;;;;;;10.90;10.30;;;2.30;99.90;;;;;;6124487;23;20389;-76
2021/01/23 04:27:01;;;;;;;11.07;10.40;;;2.30;99.90;;;;;;6125057;23;20393;-77
2021/01/23 04:29:27;;;;;;;10.80;10.20;;;2.30;99.90;;;;;;6124690;23;20427;-75
2021/01/23 04:31:55;;;;;;;10.80;10.20;;;2.30;99.90;;;;;;6124539;23;20423;-76
2021/01/23 04:34:21;;;;;;;11.40;10.63;;;2.30;99.90;;;;;;6122700;23;20414;-76
2021/01/23 04:36:47;;;;;;;11.00;10.30;;;2.30;99.90;;;;;;6124091;23;20446;-76
2021/01/23 04:39:13;;;;;;;10.90;10.30;;;2.30;99.90;;;;;;6123555;23;20434;-77
2021/01/23 04:41:40;;;;;;;11.20;10.50;;;2.30;99.90;;;;;;6123023;23;20921;-76
2021/01/23 04:44:07;;;;;;;10.90;10.30;;;2.30;99.90;;;;;;6122509;23;20441;-74
2021/01/23 04:46:33;;;;;;;11.30;10.70;;;2.30;99.90;;;;;;6122361;23;20949;-76
2021/01/23 04:49:02;;;;;;;11.40;10.80;;;2.30;99.90;;;;;;6122477;23;20756;-76
2021/01/23 04:51:28;;;;;;;11.30;10.70;;;2.30;99.90;;;;;;6123716;23;20415;-76
2021/01/23 04:53:55;;;;;;;10.93;10.33;;;2.30;99.90;;;;;;6122259;23;20426;-76
2021/01/23 04:56:21;;;;;;;11.07;10.47;;;2.30;99.90;;;;;;6122384;23;20888;-76
2021/01/23 04:58:48;;;;;;;11.00;10.40;;;2.30;99.90;;;;;;6123373;23;20428;-75
2021/01/23 05:01:15;;;;;;;11.50;10.90;;;2.30;99.90;;;;;;6122849;23;20433;-76
2021/01/23 05:03:58;;;;;;;10.97;10.37;;;2.30;99.90;;;;;;6123155;23;20416;-77
2021/01/23 05:06:25;;;;;;;11.30;10.70;;;2.30;99.90;;;;;;6124479;23;20386;-77
2021/01/23 05:08:52;;;;;;;11.23;10.63;;;2.30;99.90;;;;;;6125016;23;20398;-77
2021/01/23 05:11:19;;;;;;;11.10;10.50;;;2.30;99.90;;;;;;6125143;23;20411;-78
2021/01/23 05:14:09;;;;;;;10.93;10.33;;;2.30;99.90;;;;;;6123863;23;20447;-77
2021/01/23 05:16:35;;;;;;;11.27;10.67;;;2.30;99.90;;;;;;6124179;23;20465;-77
2021/01/23 05:19:02;;;;;;;10.87;10.27;;;2.30;99.90;;;;;;6125072;23;20953;-76
2021/01/23 05:21:29;;;;;;;10.30;9.80;;;2.30;99.90;;;;;;6123370;23;20477;-76
2021/01/23 05:24:07;;;;;;;10.60;10.00;;;2.30;99.90;;;;;;6123499;23;20417;-77
2021/01/23 05:26:34;;;;;;;10.70;10.10;;;2.30;99.90;;;;;;6124970;23;20845;-77
2021/01/23 05:29:09;;;;;;;10.67;10.13;;;2.30;99.90;;;;;;6124169;23;20534;-77
2021/01/23 05:31:35;;;;;;;10.90;10.30;;;2.30;99.90;;;;;;6124550;23;20482;-77
2021/01/23 05:34:01;;;;;;;10.83;10.23;;;2.30;99.90;;;;;;6124375;23;20429;-77
2021/01/23 05:36:40;;;;;;;10.70;10.10;;;2.30;99.90;;;;;;6124384;23;20762;-77
2021/01/23 05:39:06;;;;;;;10.60;10.00;;;2.30;99.90;;;;;;6125588;23;20420;-76
2021/01/23 05:41:32;;;;;;;11.33;10.67;;;2.30;99.90;;;;;;6125688;23;20908;-77
2021/01/23 05:43:58;;;;;;;11.20;10.60;;;2.30;99.90;;;;;;6125665;23;20444;-77
2021/01/23 05:46:31;;;;;;;10.40;9.90;;;2.30;99.90;;;;;;6124330;23;20422;-77
2021/01/23 05:48:58;;;;;;;10.60;10.00;;;2.30;99.90;;;;;;6124236;23;20409;-77
2021/01/23 05:51:25;;;;;;;10.53;10.00;;;2.30;99.90;;;;;;6123429;23;20772;-76
2021/01/23 05:53:52;;;;;;;10.77;10.17;;;2.30;99.90;;;;;;6124579;23;20780;-75
2021/01/23 05:56:19;;;;;;;10.30;9.80;;;2.30;99.90;;;;;;6120377;23;20513;-74
2021/01/23 05:58:46;;;;;;;10.80;10.20;;;2.30;99.90;;;;;;6124060;23;20454;-76
2021/01/23 06:01:14;;;;;;;10.73;10.13;;;2.30;99.90;;;;;;6123275;23;20797;-76
2021/01/23 06:03:42;;;;;;;10.40;9.90;;;2.30;99.90;;;;;;6125311;23;20391;-76
2021/01/23 06:06:09;;;;;;;10.60;10.00;;;2.30;99.90;;;;;;6123589;23;20409;-76
2021/01/23 06:08:37;;;;;;;10.57;9.97;;;2.20;99.90;;;;;;6125287;23;20394;-77
2021/01/23 06:11:04;;;;;;;10.70;10.10;;;2.20;99.90;;;;;;6125564;23;20429;-76
2021/01/23 06:13:42;;;;;;;10.70;10.10;;;2.20;99.90;;;;;;6125606;23;20394;-77
2021/01/23 06:16:38;;;;;;;11.03;10.43;;;2.20;99.90;;;;;;6123982;23;20415;-76
2021/01/23 06:19:42;;;;;;;10.80;10.20;;;2.20;99.90;;;;;;6125199;23;20468;-76
2021/01/23 06:22:09;;;;;;;11.00;10.40;;;2.20;99.90;;;;;;6123867;23;20436;-77
2021/01/23 06:24:52;;;;;;;11.27;10.67;;;2.20;99.90;;;;;;6125634;23;20390;-77
2021/01/23 06:27:19;;;;;;;11.23;10.63;;;2.20;99.90;;;;;;6124346;23;20415;-77
2021/01/23 06:29:46;;;;;;;10.90;10.30;;;2.20;99.90;;;;;;6124744;23;20398;-77
2021/01/23 06:32:29;;;;;;;10.83;10.23;;;2.10;99.90;;;;;;6124124;23;20433;-76
2021/01/23 06:34:57;;;;;;;11.03;10.33;;;2.10;99.90;;;;;;6125703;23;20402;-77
2021/01/23 06:37:29;;;;;;;11.20;10.60;;;2.10;99.90;;;;;;6124081;23;21068;-77
2021/01/23 06:40:12;;;;;;;11.33;10.63;;;2.10;99.90;;;;;;6124981;23;20403;-77
2021/01/23 06:42:43;;;;;;;11.20;10.50;;;2.10;99.90;;;;;;6123780;23;20960;-77
2021/01/23 06:45:24;;;;;;;10.90;10.30;;;2.10;99.90;;;;;;6125231;23;20376;-77
2021/01/23 06:47:52;;;;;;;10.90;10.30;;;2.10;99.90;;;;;;6125571;23;20418;-77
2021/01/23 06:50:30;;;;;;;11.27;10.67;;;2.10;99.90;;;;;;6125223;23;20731;-77
2021/01/23 06:52:56;;;;;;;10.97;10.27;;;2.10;99.90;;;;;;6125491;23;20411;-77
2021/01/23 06:55:46;;;;;;;11.30;10.60;;;2.10;99.90;;;;;;6123589;23;20416;-77
2021/01/23 06:58:24;;;;;;;11.87;11.17;;;2.10;99.90;;;;;;6125118;23;20434;-76
2021/01/23 07:00:52;;;;;;;11.80;11.07;;;2.10;99.90;;;;;;6122060;23;20417;-77
2021/01/23 07:03:19;;;;;;;12.20;11.50;;;2.00;99.90;;;;;;6123188;23;20457;-77
2021/01/23 07:05:51;;;;;;;11.50;10.80;;;2.00;99.90;;;;;;6123729;23;20799;-77
2021/01/23 07:08:25;;;;;;;11.50;10.80;;;2.00;99.90;;;;;;6121986;23;20905;-77
2021/01/23 07:11:15;;;;;;;12.07;11.33;;;2.00;99.90;;;;;;6123941;23;20404;-78
2021/01/23 07:14:01;;;;;;;11.60;10.90;;;1.90;99.90;;;;;;6125353;23;20382;-78
2021/01/23 07:16:29;;;;;;;11.70;10.90;;;1.90;99.90;;;;;;6124883;23;20416;-77
2021/01/23 07:18:57;;;;;;;11.63;10.93;;;1.90;99.90;;;;;;6122905;23;20498;-77
2021/01/23 07:21:25;;;;;;;11.50;10.90;;;1.90;99.90;;;;;;6123531;23;20476;-78
2021/01/23 07:23:54;;;;;;;11.77;11.07;;;2.00;99.90;;;;;;6124769;23;20393;-78
2021/01/23 07:26:21;;;;;;;11.60;10.93;;;2.00;99.90;;;;;;6123570;23;20418;-78
2021/01/23 07:28:51;;;;;;;11.70;11.00;;;2.00;99.90;;;;;;6124644;23;20406;-77
2021/01/23 07:31:23;;;;;;;12.23;11.43;;;1.90;99.90;;;;;;6125561;23;20407;-78
2021/01/23 07:33:49;;;;;;;12.50;11.70;;;1.90;99.90;;;;;;6125333;23;20393;-78
2021/01/23 07:36:29;;;;;;;12.27;11.57;;;2.00;99.90;;;;;;6123600;23;20406;-78
2021/01/23 07:38:56;;;;;;;12.43;11.63;;;2.10;99.90;;;;;;6123602;23;20775;-78
2021/01/23 07:41:23;;;;;;;12.47;11.67;;;2.10;99.90;;;;;;6123459;23;20447;-77
2021/01/23 07:43:50;;;;;;;13.43;12.43;;;2.10;99.90;;;;;;6125163;23;20395;-76
2021/01/23 07:46:16;;;;;;;12.67;11.93;;;2.20;99.90;;;;;;6125528;23;20389;-78
2021/01/23 07:48:43;;;;;;;13.43;12.53;;;2.20;99.90;;;;;;6124042;23;20421;-78
2021/01/23 07:51:22;;;;;;;12.20;11.50;;;2.20;99.90;;;;;;6125259;23;20412;-77
2021/01/23 07:54:06;;;;;;;12.40;11.67;;;2.20;99.90;;;;;;6124568;23;20522;-77
2021/01/23 07:56:32;;;;;;;12.60;11.90;;;2.30;99.90;;;;;;6125584;23;20396;-77
2021/01/23 07:58:59;;;;;;;12.70;11.90;;;2.30;99.90;;;;;;6125304;23;20996;-77
2021/01/23 08:01:26;;;;;;;12.47;11.67;;;2.40;99.90;;;;;;6125302;23;20409;-78
2021/01/23 08:03:53;;;;;;;12.57;11.77;;;2.40;99.90;;;;;;6125590;23;20436;-76
2021/01/23 08:06:21;;;;;;;11.97;11.27;;;2.40;99.90;;;;;;6123566;23;20517;-76
2021/01/23 08:08:48;;;;;;;11.83;11.10;;;2.40;99.90;;;;;;6122831;23;20493;-76
2021/01/23 08:11:36;;;;;;;12.37;11.67;;;2.50;99.90;;;;;;6123262;23;20458;-77
2021/01/23 08:14:10;;;;;;;12.93;12.00;;;2.50;99.90;;;;;;6126464;23;20429;-76
2021/01/23 08:16:49;;;;;;;12.60;11.80;;;2.50;99.90;;;;;;6126850;23;20874;-77
2021/01/23 08:19:17;;;;;;;13.00;12.10;;;2.60;99.90;;;;;;6125650;23;20421;-76
2021/01/23 08:21:43;;;;;;;12.43;11.63;;;2.60;99.90;;;;;;6124713;23;20495;-77
2021/01/23 08:24:28;;;;;;;12.30;11.60;;;2.70;99.90;;;;;;6125157;23;20807;-76
2021/01/23 08:26:58;;;;;;;12.50;11.70;;;2.70;99.90;;;;;;6126691;23;20454;-77
2021/01/23 08:29:24;;;;;;;12.37;11.60;;;2.80;99.90;;;;;;6126443;23;20443;-77
2021/01/23 08:32:00;;;;;;;11.90;11.20;;;2.80;99.90;;;;;;6125351;23;20416;-78
2021/01/23 08:34:27;;;;;;;12.47;11.50;;;2.90;99.90;;;;;;6123233;23;20447;-76
2021/01/23 08:36:54;;;;;;;11.80;11.07;;;2.90;99.90;;;;;;6125611;23;20394;-76
2021/01/23 08:39:20;;;;;;;11.80;11.10;;;3.00;99.90;;;;;;6122468;23;20782;-76
2021/01/23 08:41:46;;;;;;;11.87;11.17;;;3.00;99.90;;;;;;6125183;23;20467;-76
2021/01/23 08:44:12;;;;;;;11.00;10.30;;;3.10;99.90;;;;;;6122440;23;20428;-76
2021/01/23 08:46:39;;;;;;;11.83;11.13;;;3.10;99.90;;;;;;6122532;23;20428;-76
2021/01/23 08:49:05;;;;;;;12.27;11.50;;;3.20;99.90;;;;;;6122727;23;20419;-76
2021/01/23 08:51:33;;;;;;;12.40;11.70;;;3.30;99.90;;;;;;6125293;23;20416;-76
2021/01/23 08:53:59;;;;;;;12.50;11.60;;;3.30;99.90;;;;;;6124301;23;20419;-76
2021/01/23 08:56:26;;;;;;;12.17;11.27;;;3.40;99.90;;;;;;6123523;23;20471;-76
2021/01/23 08:58:52;;;;;;;13.17;12.27;;;3.40;99.90;;;;;;6122051;23;20951;-76
2021/01/23 09:01:18;;;;;;;11.00;10.20;;;3.50;99.90;;;;;;6124419;23;20420;-76
2021/01/23 09:03:45;;;;;;;11.50;10.70;;;3.50;99.90;;;;;;6124232;23;20766;-76
2021/01/23 09:06:11;;;;;;;12.13;11.17;;;3.60;99.90;;;;;;6125793;23;20393;-76
2021/01/23 09:08:38;;;;;;;12.20;11.40;;;3.70;99.90;;;;;;6124199;23;20447;-76
2021/01/23 09:11:05;;;;;;;6.57;4.90;;;3.80;99.90;;;;;;6124282;23;20433;-76
2021/01/23 09:13:31;;;;;;;5.23;4.10;;;3.90;99.90;;;;;;6125607;23;20477;-76
2021/01/23 09:15:58;;;;;;;10.33;9.37;;;4.00;99.90;;;;;;6124223;23;20900;-76
2021/01/23 09:18:24;;;;;;;6.33;4.50;;;4.10;99.90;;;;;;6125745;23;20440;-74
2021/01/23 09:20:50;;;;;;;11.00;10.30;;;4.20;99.90;;;;;;6125759;23;20389;-76
2021/01/23 09:23:16;;;;;;;5.57;4.00;;;4.30;99.90;;;;;;6126252;23;20477;-77
2021/01/23 09:25:44;;;;;;;10.20;9.33;;;4.50;99.90;;;;;;6126418;23;20542;-76
2021/01/23 09:28:10;;;;;;;8.93;8.33;;;4.60;99.90;;;;;;6126659;23;20165;-77
2021/01/23 09:30:37;;;;;;;7.67;7.07;;;4.60;99.90;;;;;;6126678;23;20166;-77
2021/01/23 09:33:03;;;;;;;5.50;3.50;;;4.70;99.90;;;;;;6126332;23;20212;-76
2021/01/23 09:35:30;;;;;;;5.07;3.80;;;4.80;99.90;;;;;;6126546;23;20533;-79
2021/01/23 09:37:56;;;;;;;4.50;3.90;;;4.80;99.90;;;;;;6125261;23;20185;-77
2021/01/23 09:40:22;;;;;;;8.37;7.73;;;4.70;99.90;;;;;;6124493;23;20177;-77
2021/01/23 09:42:49;;;;;;;7.00;4.17;;;4.70;99.90;;;;;;6124768;23;20539;-76
2021/01/23 09:45:16;;;;;;;3.93;3.53;;;4.60;99.90;;;;;;6125990;23;20228;-77
2021/01/23 09:47:42;;;;;;;4.73;4.07;;;4.60;99.90;;;;;;6124840;23;20208;-77
2021/01/23 09:50:09;;;;;;;4.13;3.57;;;4.60;99.90;;;;;;6126587;23;20169;-76
2021/01/23 09:52:35;;;;;;;4.20;3.80;;;4.70;99.90;;;;;;6124424;23;20193;-76
2021/01/23 09:55:02;;;;;;;5.17;4.27;;;4.70;99.90;;;;;;6124365;23;20177;-76
2021/01/23 09:57:28;;;;;;;5.03;4.53;;;4.60;99.90;;;;;;6126491;23;20623;-77
2021/01/23 09:59:55;;;;;;;6.57;5.17;;;4.70;99.90;;;;;;6125808;23;20655;-75
2021/01/23 10:02:21;;;;;;;7.00;5.40;;;4.70;99.90;;;;;;6123871;23;20193;-76
2021/01/23 10:04:48;;;;;;;9.13;5.83;;;4.80;99.90;;;;;;6125478;23;20169;-77
2021/01/23 10:07:14;;;;;;;11.60;10.47;;;4.80;99.90;;;;;;6124061;23;20236;-77
2021/01/23 10:09:40;;;;;;;7.97;6.13;;;4.80;99.90;;;;;;6123818;23;20174;-77
2021/01/23 10:12:07;;;;;;;9.03;6.17;;;4.90;99.90;;;;;;6124871;23;20193;-78
2021/01/23 10:14:33;;;;;;;9.43;6.60;;;4.90;99.90;;;;;;6124375;23;20177;-77
2021/01/23 10:17:00;;;;;;;9.70;7.40;;;5.00;99.90;;;;;;6124546;23;20206;-77
2021/01/23 10:19:27;;;;;;;10.03;7.17;;;5.00;99.90;;;;;;6125176;23;20686;-78
2021/01/23 10:21:53;;;;;;;8.87;7.37;;;5.00;99.90;;;;;;6125159;23;20225;-78
2021/01/23 10:24:19;;;;;;;8.27;6.43;;;5.10;99.90;;;;;;6125953;23;20169;-76
2021/01/23 10:26:45;;;;;;;7.63;6.00;;;5.10;99.90;;;;;;6124898;23;20177;-77
2021/01/23 10:29:12;;;;;;;7.73;6.63;;;5.20;99.90;;;;;;6124242;23;20641;-77
2021/01/23 10:31:38;;;;;;;11.80;8.43;;;5.20;99.90;;;;;;6124599;23;20546;-77
2021/01/23 10:34:06;;;;;;;11.97;8.33;;;5.30;99.90;;;;;;6126121;23;20173;-77
2021/01/23 10:36:32;;;;;;;13.17;8.87;;;5.30;99.90;;;;;;6126585;23;20526;-76
2021/01/23 10:38:58;;;;;;;16.40;14.77;;;5.40;99.90;;;;;;6124650;23;20201;-77
2021/01/23 10:41:25;;;;;;;14.90;13.73;;;5.40;99.90;;;;;;6125947;23;20208;-77
2021/01/23 10:43:51;;;;;;;15.20;14.00;;;5.50;99.90;;;;;;6124985;23;20179;-77
2021/01/23 10:46:17;;;;;;;15.07;13.77;;;5.60;99.90;;;;;;6126318;23;20170;-78
2021/01/23 10:48:43;;;;;;;14.40;13.20;;;5.70;99.90;;;;;;6125203;23;20181;-78
2021/01/23 10:51:10;;;;;;;13.73;12.63;;;5.80;99.90;;;;;;6125303;23;20193;-79
2021/01/23 10:53:37;;;;;;;13.37;12.27;;;5.80;99.90;;;;;;6124160;23;20571;-77
2021/01/23 10:56:04;;;;;;;14.23;13.10;;;5.80;99.90;;;;;;6125092;23;20169;-75
2021/01/23 10:58:30;;;;;;;13.80;12.80;;;6.00;99.90;;;;;;6124980;23;20182;-77
2021/01/23 11:00:57;;;;;;;13.40;12.40;;;5.90;99.90;;;;;;6124177;23;20248;-76
2021/01/23 11:03:23;;;;;;;15.97;14.77;;;5.80;99.90;;;;;;6123646;23;20224;-76
2021/01/23 11:05:51;;;;;;;13.37;12.40;;;5.80;99.90;;;;;;6125886;23;20172;-79
2021/01/23 11:08:18;;;;;;;13.90;12.80;;;5.80;99.90;;;;;;6124948;23;20293;-78
2021/01/23 11:10:44;;;;;;;13.60;12.67;;;5.80;99.90;;;;;;6126523;23;20284;-78
2021/01/23 11:13:10;;;;;;;13.73;12.63;;;5.90;99.90;;;;;;6126772;23;20177;-80
2021/01/23 11:15:37;;;;;;;14.33;13.23;;;5.90;99.90;;;;;;6126391;23;20632;-77
2021/01/23 11:18:03;;;;;;;14.07;13.07;;;5.90;99.90;;;;;;6124413;23;20174;-77
2021/01/23 11:20:29;;;;;;;14.07;13.00;;;5.90;99.90;;;;;;6126133;23;20167;-77
2021/01/23 11:22:56;;;;;;;14.13;13.13;;;6.00;99.90;;;;;;6125417;23;20186;-76
2021/01/23 11:25:23;;;;;;;14.90;13.70;;;6.00;99.90;;;;;;6124262;23;20236;-77
2021/01/23 11:27:50;;;;;;;15.70;14.50;;;6.00;99.90;;;;;;6124437;23;20183;-77
2021/01/23 11:30:17;;;;;;;15.23;14.10;;;6.00;99.90;;;;;;6124257;23;20210;-78
2021/01/23 11:32:44;;;;;;;15.80;14.50;;;6.00;99.90;;;;;;6123192;23;20225;-79
2021/01/23 11:35:10;;;;;;;14.63;13.53;;;5.80;99.90;;;;;;6122989;23;20197;-79
2021/01/23 11:37:36;;;;;;;14.87;13.67;;;5.70;99.90;;;;;;6125270;23;20242;-79
2021/01/23 11:40:04;;;;;;;14.13;13.03;;;5.70;99.90;;;;;;6124579;23;20193;-79
2021/01/23 11:42:31;;;;;;;13.00;11.93;;;5.60;99.90;;;;;;6123519;23;20197;-78
2021/01/23 11:44:57;;;;;;;12.87;11.87;;;5.60;99.90;;;;;;6124057;23;20224;-78
2021/01/23 11:47:24;;;;;;;12.87;11.87;;;5.60;99.90;;;;;;6124783;23;20194;-78
2021/01/23 11:49:50;;;;;;;12.57;11.57;;;5.60;99.90;;;;;;6125664;23;20174;-78
2021/01/23 11:52:16;;;;;;;12.10;11.20;;;5.60;99.90;;;;;;6123766;23;20198;-78
2021/01/23 11:54:43;;;;;;;12.50;11.60;;;5.80;99.90;;;;;;6122739;23;20181;-79
2021/01/23 11:57:09;;;;;;;12.87;11.80;;;5.80;99.90;;;;;;6122545;23;20177;-79
2021/01/23 11:59:37;;;;;;;12.73;11.73;;;5.80;99.90;;;;;;6123862;23;20246;-79
2021/01/23 12:02:03;;;;;;;14.50;13.23;;;5.80;99.90;;;;;;6124458;23;20269;-78
2021/01/23 12:04:30;;;;;;;85.30;43.03;;;5.90;99.90;;;;;;6122794;23;20177;-78
2021/01/23 12:06:56;;;;;;;61.97;30.53;;;5.90;99.90;;;;;;6124653;23;20542;-80
2021/01/23 12:09:22;;;;;;;42.77;24.70;;;5.90;99.90;;;;;;6122525;23;20184;-78
2021/01/23 12:11:49;;;;;;;25.60;18.70;;;5.80;99.90;;;;;;6124142;23;20197;-79
2021/01/23 12:14:15;;;;;;;18.40;15.47;;;5.80;99.90;;;;;;6124630;23;20166;-79
2021/01/23 12:16:42;;;;;;;15.33;13.77;;;5.80;99.90;;;;;;6123037;23;20629;-78
2021/01/23 12:19:09;;;;;;;13.70;12.33;;;5.90;99.90;;;;;;6123842;23;20266;-79
2021/01/23 12:21:35;;;;;;;14.13;12.93;;;5.90;99.90;;;;;;6125182;23;20193;-78
2021/01/23 12:24:02;;;;;;;12.67;11.57;;;6.00;99.90;;;;;;6125583;23;20170;-78
2021/01/23 12:26:28;;;;;;;12.83;11.73;;;6.00;99.90;;;;;;6123175;23;20629;-78
2021/01/23 12:28:54;;;;;;;12.53;11.53;;;6.00;99.90;;;;;;6124645;23;20229;-79
2021/01/23 12:31:21;;;;;;;12.67;11.77;;;6.00;99.90;;;;;;6124969;23;20193;-78
2021/01/23 12:33:48;;;;;;;12.50;11.50;;;6.10;99.90;;;;;;6123050;23;20174;-79
2021/01/23 12:36:14;;;;;;;12.50;11.60;;;6.10;99.90;;;;;;6123457;23;20198;-78
2021/01/23 12:38:41;;;;;;;12.57;11.73;;;6.10;99.90;;;;;;6123691;23;20194;-78
2021/01/23 12:41:07;;;;;;;12.07;11.27;;;6.10;99.90;;;;;;6126251;23;20582;-78
2021/01/23 12:43:33;;;;;;;12.67;11.87;;;6.00;99.90;;;;;;6125050;23;20252;-78
2021/01/23 12:45:59;;;;;;;12.00;11.17;;;6.10;99.90;;;;;;6126420;23;20169;-78
2021/01/23 12:48:26;;;;;;;13.03;11.93;;;6.00;99.90;;;;;;6126409;23;20167;-78